Pagina principale
METAR-TAF:

METAR-TAF

Aeroporti :

Payerne, Svizzera

latitudine: 46-49N, longitudine: 006-57E, altezza: 490 m

Osservazione

Il bollettino è stato emesso 23 minuti fa, alle 20:20 UTC
Vento 5 kt da sud/sud-ovest
Temperature 11°C
Umidità 94%
Pressione 1020 hPa
Visibilità 10 km o più
Nubi sparse ad un'altezza di 5600 ft
Nuvoloso ad un'altezza di 6400 ft
rovesci di pioggia

METAR: LSMP 242020Z AUTO 20005KT 9999NDV SHRA SCT056 BKN064 11/10 Q1020 RMK

Ora: 22:43 (20:43 UTC)


TAF: mancante

Osservazioni e previsioni meteorologiche di più di 4000 aeroporti (messaggi METAR e TAF).

Le stazioni disponibili sono rappresentate dai dischi gialli e rossi sulla carta.

Puntare il mouse per vedere il nome della stazione.

Clicca sopra per visualizzare le osservazioni e previsioni meteorologiche.

Per cambiare la mappa : fare clic sui pulsanti verdi con una croce nera per ingrandire, il pulsante verde con un trattino per diminuire, o sulla freccia verde per le mappe adiacenti.


METAR-TAF: